createdAt,value
2023-02-03T00:00:40.224Z,42.47
2023-02-03T00:05:37.074Z,35.35
2023-02-03T00:10:38.352Z,32.42
2023-02-03T00:15:34.854Z,32.38
2023-02-03T00:20:31.235Z,36.65
2023-02-03T00:25:27.901Z,39.30
2023-02-03T00:30:24.656Z,36.65
2023-02-03T00:35:21.524Z,32.83
2023-02-03T00:40:18.306Z,41.35
2023-02-03T00:45:15.163Z,33.33
2023-02-03T00:50:11.788Z,40.90
2023-02-03T00:55:08.607Z,37.38
2023-02-03T01:00:06.244Z,41.45
2023-02-03T01:05:02.610Z,39.55
2023-02-03T01:09:59.074Z,41.95
2023-02-03T01:14:55.419Z,33.70
2023-02-03T01:19:52.885Z,39.53
2023-02-03T01:24:49.235Z,36.47
2023-02-03T01:29:45.970Z,29.90
2023-02-03T01:34:42.277Z,39.80
2023-02-03T01:39:38.585Z,34.05
2023-02-03T01:44:51.387Z,32.72
2023-02-03T01:50:06.760Z,33.83
2023-02-03T01:55:07.939Z,34.42
2023-02-03T02:00:07.047Z,34.15
2023-02-03T02:05:13.681Z,32.65
2023-02-03T02:10:10.810Z,32.83
2023-02-03T02:15:07.764Z,33.38
2023-02-03T02:20:28.859Z,27.77
2023-02-03T02:25:42.296Z,31.17
2023-02-03T02:30:53.990Z,26.58
2023-02-03T02:36:07.077Z,31.95
2023-02-03T02:41:09.828Z,28.38
2023-02-03T02:46:12.576Z,22.65
2023-02-03T02:51:12.986Z,29.27
2023-02-03T02:56:13.722Z,26.90
2023-02-03T03:01:11.589Z,24.40
2023-02-03T03:06:14.192Z,22.65
2023-02-03T03:11:11.249Z,25.77
2023-02-03T03:16:09.842Z,29.45
2023-02-03T03:26:16.716Z,23.15
2023-02-03T03:31:13.282Z,20.40
2023-02-03T03:36:30.562Z,27.70
2023-02-03T03:41:38.293Z,20.60
2023-02-03T03:46:46.167Z,29.07
2023-02-03T03:51:53.762Z,19.60
2023-02-03T03:57:05.488Z,24.77
2023-02-03T04:02:04.790Z,22.92
2023-02-03T04:07:01.403Z,18.88
2023-02-03T04:12:05.725Z,18.05
2023-02-03T04:17:02.074Z,23.02
2023-02-03T04:21:58.380Z,16.83
2023-02-03T04:26:55.072Z,15.80
2023-02-03T04:31:51.418Z,17.05
2023-02-03T04:36:47.823Z,17.15
2023-02-03T04:41:44.114Z,12.90
2023-02-03T04:46:40.484Z,15.82
2023-02-03T04:51:36.788Z,17.10
2023-02-03T04:56:33.094Z,17.33
2023-02-03T05:01:29.521Z,20.67
2023-02-03T05:06:28.855Z,14.18
2023-02-03T05:11:25.335Z,21.45
2023-02-03T05:16:21.974Z,16.98
2023-02-03T05:21:18.897Z,12.27
2023-02-03T05:26:15.265Z,11.90
2023-02-03T05:31:11.856Z,22.63
2023-02-03T05:36:09.108Z,12.13
2023-02-03T05:41:24.086Z,11.05
2023-02-03T05:46:20.475Z,17.52
2023-02-03T05:51:16.840Z,21.33
2023-02-03T05:56:13.224Z,17.20
2023-02-03T06:01:11.643Z,15.52
2023-02-03T06:06:07.984Z,13.95
2023-02-03T06:11:04.504Z,18.48
2023-02-03T06:16:00.965Z,16.30
2023-02-03T06:20:57.308Z,10.90
2023-02-03T06:25:53.729Z,12.25
2023-02-03T06:30:51.713Z,19.85
2023-02-03T06:35:48.183Z,21.65
2023-02-03T06:40:47.229Z,15.55
2023-02-03T06:45:47.350Z,20.80
2023-02-03T06:50:47.533Z,16.58
2023-02-03T06:55:44.883Z,18.08
2023-02-03T07:00:41.265Z,17.25
2023-02-03T07:05:37.822Z,27.02
2023-02-03T07:10:34.173Z,19.55
2023-02-03T07:15:30.649Z,18.65
2023-02-03T07:20:29.074Z,20.80
2023-02-03T07:25:26.285Z,17.45
2023-02-03T07:30:23.527Z,25.58
2023-02-03T07:35:20.450Z,20.40
2023-02-03T07:40:17.391Z,19.50
2023-02-03T07:45:15.807Z,33.08
2023-02-03T07:50:12.867Z,19.83
2023-02-03T07:55:09.952Z,23.58
2023-02-03T08:00:06.875Z,18.58
2023-02-03T08:05:03.364Z,23.05
2023-02-03T08:09:59.740Z,22.17
2023-02-03T08:14:56.209Z,20.05
2023-02-03T08:19:52.621Z,19.58
2023-02-03T08:24:49.282Z,22.65
2023-02-03T08:29:46.244Z,23.27
2023-02-03T08:34:42.712Z,15.57
2023-02-03T08:39:39.572Z,17.42
2023-02-03T08:44:36.241Z,24.13
2023-02-03T08:49:33.172Z,20.13
2023-02-03T08:54:29.572Z,21.95
2023-02-03T08:59:26.195Z,25.58
2023-02-03T09:04:24.918Z,29.10
2023-02-03T09:09:22.176Z,26.00
2023-02-03T09:14:18.597Z,21.30
2023-02-03T09:19:15.024Z,24.00
2023-02-03T09:24:11.460Z,25.08
2023-02-03T09:29:07.879Z,18.30
2023-02-03T09:34:04.310Z,18.92
2023-02-03T09:39:00.927Z,24.30
2023-02-03T09:44:11.589Z,21.77
2023-02-03T09:49:37.491Z,17.02
2023-02-03T09:54:56.991Z,23.50
2023-02-03T09:59:56.181Z,18.73
2023-02-03T10:05:15.572Z,17.75
2023-02-03T10:10:23.870Z,21.05
2023-02-03T10:15:48.015Z,11.18
2023-02-03T10:20:51.277Z,8.98
2023-02-03T10:25:57.695Z,16.40
2023-02-03T10:31:08.587Z,12.23
2023-02-03T10:36:33.218Z,19.63
2023-02-03T10:41:31.318Z,16.40
2023-02-03T10:46:33.388Z,9.55
2023-02-03T10:51:36.950Z,17.05
2023-02-03T10:56:37.540Z,19.50
2023-02-03T11:01:49.311Z,12.70
2023-02-03T11:06:56.261Z,10.80
2023-02-03T11:12:14.505Z,13.45
2023-02-03T11:17:18.650Z,12.50
2023-02-03T11:22:28.460Z,9.27
2023-02-03T11:27:27.663Z,11.38
2023-02-03T11:32:36.568Z,18.33
2023-02-03T11:37:40.615Z,9.32
2023-02-03T11:42:41.313Z,14.82
2023-02-03T11:47:37.678Z,12.75
2023-02-03T11:52:55.415Z,12.68
2023-02-03T11:58:35.355Z,11.50
2023-02-03T12:03:49.331Z,9.38
2023-02-03T12:09:02.901Z,16.27
2023-02-03T12:14:41.885Z,9.55
2023-02-03T12:20:00.400Z,22.55
2023-02-03T12:30:12.434Z,17.92
2023-02-03T12:35:19.663Z,8.38
2023-02-03T12:40:29.190Z,10.88
2023-02-03T12:45:31.091Z,16.23
2023-02-03T12:50:35.247Z,14.25
2023-02-03T12:55:41.205Z,15.80
2023-02-03T13:00:51.227Z,16.45
2023-02-03T13:05:59.759Z,18.70
2023-02-03T13:15:57.194Z,20.55
2023-02-03T13:20:54.523Z,15.40
2023-02-03T13:25:59.355Z,22.30
2023-02-03T13:31:17.580Z,14.82
2023-02-03T13:36:41.366Z,15.43
2023-02-03T13:41:46.088Z,23.73
2023-02-03T13:46:42.974Z,21.83
2023-02-03T13:51:46.172Z,18.80
2023-02-03T13:56:42.663Z,23.63
2023-02-03T14:01:40.861Z,12.43
2023-02-03T14:06:39.972Z,17.58
2023-02-03T14:11:36.262Z,17.50
2023-02-03T14:16:42.773Z,17.23
2023-02-03T14:21:54.978Z,22.45
2023-02-03T14:26:54.051Z,16.35
2023-02-03T14:31:59.517Z,18.35
2023-02-03T14:36:56.343Z,16.45
2023-02-03T14:42:22.807Z,19.08
2023-02-03T14:47:44.946Z,17.13
2023-02-03T14:52:56.765Z,17.25
2023-02-03T14:57:59.741Z,14.63
2023-02-03T15:03:11.451Z,16.13
2023-02-03T15:08:35.579Z,16.15
2023-02-03T15:13:32.149Z,14.27
2023-02-03T15:18:37.404Z,22.17
2023-02-03T15:23:42.040Z,26.45
2023-02-03T15:28:38.350Z,18.75
2023-02-03T15:33:37.271Z,10.95
2023-02-03T15:38:43.352Z,16.10
2023-02-03T15:43:44.233Z,19.05
2023-02-03T15:48:58.711Z,25.35
2023-02-03T15:54:00.615Z,22.23
2023-02-03T15:58:58.749Z,16.52
2023-02-03T16:03:57.503Z,15.13
2023-02-03T16:13:51.171Z,24.50
2023-02-03T16:19:15.194Z,23.90
2023-02-03T16:24:33.412Z,24.48
2023-02-03T16:29:48.359Z,18.10
2023-02-03T16:35:04.067Z,21.63
2023-02-03T16:40:18.913Z,16.55
2023-02-03T16:45:36.791Z,14.90
2023-02-03T16:50:52.760Z,28.00
2023-02-03T16:55:51.815Z,14.55
2023-02-03T17:00:51.477Z,23.17
2023-02-03T17:05:49.027Z,19.83
2023-02-03T17:10:46.327Z,19.27
2023-02-03T17:15:45.547Z,17.90
2023-02-03T17:20:42.799Z,14.35
2023-02-03T17:25:39.908Z,25.77
2023-02-03T17:30:36.364Z,15.55
2023-02-03T17:35:32.701Z,21.92
2023-02-03T17:56:27.868Z,31.15
2023-02-03T18:01:25.922Z,19.60
2023-02-03T18:06:24.688Z,30.20
2023-02-03T18:16:22.278Z,22.75
2023-02-03T18:21:20.701Z,29.33
2023-02-03T18:26:19.669Z,22.42
2023-02-03T18:31:17.560Z,17.83
2023-02-03T18:36:16.539Z,22.37
2023-02-03T18:41:21.385Z,19.95
2023-02-03T18:46:32.162Z,14.80
2023-02-03T18:51:28.638Z,23.98
2023-02-03T18:56:27.645Z,21.85
2023-02-03T19:01:26.462Z,29.52
2023-02-03T19:06:24.205Z,23.55
2023-02-03T19:11:20.525Z,12.68
2023-02-03T19:16:18.046Z,16.73
2023-02-03T19:21:14.711Z,27.02
2023-02-03T19:26:12.051Z,21.35
2023-02-03T19:31:13.897Z,23.83
2023-02-03T19:36:11.127Z,21.38
2023-02-03T19:41:08.646Z,22.33
2023-02-03T19:46:05.255Z,15.38
2023-02-03T19:51:01.849Z,19.65
2023-02-03T19:55:58.236Z,16.30
2023-02-03T20:00:54.602Z,22.98
2023-02-03T20:05:52.957Z,18.80
2023-02-03T20:10:49.722Z,19.67
2023-02-03T20:15:47.472Z,21.83
2023-02-03T20:20:43.871Z,18.88
2023-02-03T20:25:40.187Z,22.38
2023-02-03T20:30:36.668Z,20.52
2023-02-03T20:35:33.222Z,16.02
2023-02-03T20:40:29.890Z,14.73
2023-02-03T20:45:26.461Z,21.98
2023-02-03T20:50:31.692Z,33.80
2023-02-03T20:55:30.811Z,12.83
2023-02-03T21:00:27.792Z,19.13
2023-02-03T21:05:32.057Z,31.00
2023-02-03T21:10:28.688Z,18.20
2023-02-03T21:15:28.363Z,22.55
2023-02-03T21:20:31.138Z,18.02
2023-02-03T21:25:33.556Z,23.60
2023-02-03T21:30:34.643Z,28.92
2023-02-03T21:35:37.231Z,19.75
2023-02-03T21:40:34.737Z,26.55
2023-02-03T21:45:41.497Z,23.23
2023-02-03T21:50:40.886Z,25.77
2023-02-03T21:55:40.230Z,22.80
2023-02-03T22:00:43.198Z,24.33
2023-02-03T22:05:39.497Z,32.17
2023-02-03T22:10:35.969Z,29.92
2023-02-03T22:15:32.257Z,32.25
2023-02-03T22:20:28.829Z,30.33
2023-02-03T22:25:25.379Z,29.10
2023-02-03T22:30:21.731Z,32.50
2023-02-03T22:35:18.080Z,36.63
2023-02-03T22:40:14.450Z,27.63
2023-02-03T22:45:11.560Z,26.67
2023-02-03T22:50:10.403Z,39.03
2023-02-03T23:00:12.296Z,25.45
2023-02-03T23:05:10.068Z,25.38
2023-02-03T23:10:09.331Z,28.42
2023-02-03T23:15:05.918Z,24.80
2023-02-03T23:20:03.450Z,34.58
2023-02-03T23:25:00.360Z,27.17
2023-02-03T23:29:56.849Z,37.05
2023-02-03T23:35:12.074Z,24.17
2023-02-03T23:40:09.627Z,36.05
2023-02-03T23:45:08.455Z,35.97
2023-02-03T23:55:04.247Z,37.72
